Littlesburg, West Virginia
Current Conditions -  °F | °C
As of 12:52 AM on Monday 26 Jan 2015 (Local Time) from KBLF Reporting Station
Broken Clouds Broken Clouds  
Wind Chill: 38°   Ceiling: 6500
Heat Index: 42°   Visibility: 10mi
Dew Point: 28°   Wind: 6mph
Humidity: 58%   Direction: 180°S
Pressure: 29.64"   Gusts: NA
Location:  37.2994°N, 81.226°W
Report Text: KBLF 260552Z AUTO 18005KT 10SM BKN065 BKN100 06/M02 A2964 RMK AO2 SLP036 T00561022 10072 20056 58020
Loading
Personal Weather Stations






























Interactive Weather Map New forecast layout! Learn more

10-Day Weather Forecast

Advertisements
Track Severe Weather on mobile